createdAt,value
2023-05-04T00:01:18.985Z,5.07
2023-05-04T00:03:47.850Z,5.53
2023-05-04T00:06:19.351Z,5.83
2023-05-04T00:08:48.156Z,5.30
2023-05-04T00:11:16.380Z,4.70
2023-05-04T00:13:45.156Z,6.07
2023-05-04T00:16:13.481Z,6.97
2023-05-04T00:18:42.199Z,6.00
2023-05-04T00:21:10.734Z,10.07
2023-05-04T00:23:39.221Z,5.87
2023-05-04T00:26:12.164Z,7.60
2023-05-04T00:28:40.201Z,6.73
2023-05-04T00:31:12.624Z,9.83
2023-05-04T00:33:41.603Z,6.93
2023-05-04T00:36:10.059Z,5.70
2023-05-04T00:38:52.540Z,9.03
2023-05-04T00:41:25.339Z,9.43
2023-05-04T00:43:53.328Z,5.83
2023-05-04T00:46:21.797Z,9.23
2023-05-04T00:48:51.839Z,5.03
2023-05-04T00:51:24.356Z,16.07
2023-05-04T00:53:54.744Z,6.57
2023-05-04T00:56:24.830Z,9.13
2023-05-04T00:58:58.097Z,7.47
2023-05-04T01:01:26.831Z,7.93
2023-05-04T01:03:55.793Z,7.83
2023-05-04T01:06:29.625Z,6.33
2023-05-04T01:09:11.174Z,8.07
2023-05-04T01:11:49.362Z,9.73
2023-05-04T01:14:19.250Z,7.40
2023-05-04T01:16:47.811Z,4.90
2023-05-04T01:19:16.922Z,5.87
2023-05-04T01:21:45.032Z,8.13
2023-05-04T01:24:13.052Z,7.30
2023-05-04T01:26:44.342Z,8.63
2023-05-04T01:29:20.279Z,5.47
2023-05-04T01:31:49.296Z,9.77
2023-05-04T01:34:20.040Z,10.17
2023-05-04T01:36:48.626Z,10.00
2023-05-04T01:39:16.892Z,9.30
2023-05-04T01:41:47.912Z,9.30
2023-05-04T01:44:16.987Z,10.30
2023-05-04T01:46:45.298Z,10.90
2023-05-04T01:49:13.377Z,10.10
2023-05-04T01:51:41.484Z,11.27
2023-05-04T01:54:09.627Z,8.67
2023-05-04T01:56:58.088Z,8.63
2023-05-04T01:59:25.997Z,12.07
2023-05-04T02:01:54.151Z,9.83
2023-05-04T02:04:22.330Z,9.33
2023-05-04T02:06:50.820Z,12.27
2023-05-04T02:09:18.850Z,10.10
2023-05-04T02:11:47.176Z,11.50
2023-05-04T02:14:15.454Z,11.97
2023-05-04T02:16:43.666Z,10.93
2023-05-04T02:19:11.710Z,15.23
2023-05-04T02:21:42.435Z,9.33
2023-05-04T02:24:10.827Z,13.67
2023-05-04T02:26:39.088Z,14.37
2023-05-04T02:29:07.616Z,10.40
2023-05-04T02:31:36.311Z,14.50
2023-05-04T02:34:04.689Z,11.60
2023-05-04T02:36:32.984Z,11.57
2023-05-04T02:39:04.084Z,15.17
2023-05-04T02:41:32.101Z,10.57
2023-05-04T02:44:00.167Z,14.97
2023-05-04T02:46:28.121Z,18.23
2023-05-04T02:48:59.229Z,16.53
2023-05-04T02:51:27.390Z,10.83
2023-05-04T02:53:55.720Z,10.67
2023-05-04T02:56:24.643Z,10.37
2023-05-04T02:58:52.902Z,12.23
2023-05-04T03:01:20.938Z,11.83
2023-05-04T03:03:49.342Z,7.90
2023-05-04T03:06:17.233Z,11.03
2023-05-04T03:08:45.603Z,11.20
2023-05-04T03:11:13.999Z,10.00
2023-05-04T03:13:42.138Z,8.53
2023-05-04T03:16:10.633Z,9.90
2023-05-04T03:18:40.437Z,6.65
2023-05-04T03:21:08.773Z,7.32
2023-05-04T03:23:37.150Z,9.85
2023-05-04T03:26:06.740Z,10.35
2023-05-04T03:28:40.823Z,11.52
2023-05-04T03:31:09.177Z,12.85
2023-05-04T03:33:37.468Z,10.88
2023-05-04T03:36:05.830Z,8.63
2023-05-04T03:38:34.363Z,10.32
2023-05-04T03:41:02.424Z,13.85
2023-05-04T03:43:31.118Z,10.25
2023-05-04T03:45:59.797Z,13.82
2023-05-04T03:48:28.135Z,12.93
2023-05-04T03:50:56.570Z,14.75
2023-05-04T03:53:24.727Z,20.60
2023-05-04T03:55:53.097Z,19.92
2023-05-04T03:58:21.550Z,16.58
2023-05-04T04:00:49.562Z,13.45
2023-05-04T04:03:18.228Z,22.67
2023-05-04T04:05:46.496Z,11.10
2023-05-04T04:08:14.744Z,11.18
2023-05-04T04:10:43.258Z,12.00
2023-05-04T04:13:11.657Z,12.45
2023-05-04T04:15:42.045Z,13.48
2023-05-04T04:18:11.691Z,9.55
2023-05-04T04:20:39.613Z,10.63
2023-05-04T04:23:07.667Z,12.02
2023-05-04T04:25:35.774Z,9.15
2023-05-04T04:28:05.103Z,13.82
2023-05-04T04:30:33.609Z,8.63
2023-05-04T04:33:02.448Z,16.55
2023-05-04T04:35:33.525Z,13.27
2023-05-04T04:38:03.797Z,11.63
2023-05-04T04:40:32.406Z,17.85
2023-05-04T04:43:00.306Z,14.52
2023-05-04T04:45:28.611Z,12.40
2023-05-04T04:47:56.663Z,16.83
2023-05-04T04:50:25.360Z,10.35
2023-05-04T04:52:53.505Z,12.30
2023-05-04T04:55:21.483Z,14.05
2023-05-04T04:57:49.421Z,16.00
2023-05-04T05:00:18.249Z,13.20
2023-05-04T05:05:31.832Z,13.82
2023-05-04T05:08:00.967Z,15.30
2023-05-04T05:10:29.330Z,13.32
2023-05-04T05:12:57.550Z,17.33
2023-05-04T05:15:26.180Z,15.00
2023-05-04T05:17:54.600Z,18.95
2023-05-04T05:20:24.041Z,14.93
2023-05-04T05:22:52.651Z,15.50
2023-05-04T05:25:21.410Z,13.02
2023-05-04T05:27:50.698Z,20.13
2023-05-04T05:30:19.390Z,14.52
2023-05-04T05:32:49.315Z,10.75
2023-05-04T05:35:17.717Z,11.82
2023-05-04T05:37:46.252Z,13.85
2023-05-04T05:40:14.744Z,14.18
2023-05-04T05:42:43.353Z,11.23
2023-05-04T05:45:11.968Z,10.32
2023-05-04T05:47:40.145Z,17.60
2023-05-04T05:50:08.933Z,13.52
2023-05-04T05:52:37.647Z,15.05
2023-05-04T05:55:06.308Z,17.35
2023-05-04T05:57:34.525Z,14.82
2023-05-04T06:00:03.882Z,16.27
2023-05-04T06:02:33.806Z,10.55
2023-05-04T06:05:03.291Z,15.18
2023-05-04T06:07:32.409Z,14.68
2023-05-04T06:10:00.700Z,18.30
2023-05-04T06:12:28.810Z,16.33
2023-05-04T06:14:56.980Z,23.63
2023-05-04T06:17:25.339Z,17.33
2023-05-04T06:19:53.583Z,24.50
2023-05-04T06:22:22.154Z,19.73
2023-05-04T06:24:50.391Z,23.52
2023-05-04T06:27:19.104Z,19.15
2023-05-04T06:29:47.637Z,22.17
2023-05-04T06:32:15.795Z,23.38
2023-05-04T06:34:44.796Z,19.50
2023-05-04T06:37:15.561Z,20.50
2023-05-04T06:39:44.244Z,21.98
2023-05-04T06:42:12.702Z,23.33
2023-05-04T06:44:40.704Z,21.50
2023-05-04T06:47:08.757Z,20.08
2023-05-04T06:49:36.886Z,20.67
2023-05-04T06:52:05.460Z,15.77
2023-05-04T06:54:33.753Z,18.67
2023-05-04T06:57:05.482Z,16.15
2023-05-04T06:59:34.507Z,15.43
2023-05-04T07:02:02.572Z,21.55
2023-05-04T07:04:30.724Z,16.83
2023-05-04T07:06:58.839Z,23.70
2023-05-04T07:09:27.281Z,17.90
2023-05-04T07:11:55.627Z,16.50
2023-05-04T07:14:24.241Z,12.60
2023-05-04T07:16:53.163Z,10.60
2023-05-04T07:19:21.796Z,9.65
2023-05-04T07:21:50.109Z,12.73
2023-05-04T07:24:18.418Z,9.32
2023-05-04T07:26:47.034Z,12.20
2023-05-04T07:29:17.174Z,10.20
2023-05-04T07:31:45.485Z,10.90
2023-05-04T07:34:14.034Z,10.77
2023-05-04T07:36:45.480Z,12.10
2023-05-04T07:39:15.938Z,14.03
2023-05-04T07:41:44.468Z,17.73
2023-05-04T07:44:13.178Z,14.00
2023-05-04T07:46:44.135Z,20.90
2023-05-04T07:49:14.519Z,20.37
2023-05-04T07:51:42.512Z,18.17
2023-05-04T07:54:11.121Z,20.23
2023-05-04T07:56:39.260Z,19.03
2023-05-04T07:59:07.356Z,18.10
2023-05-04T08:01:36.508Z,21.77
2023-05-04T08:04:04.910Z,15.43
2023-05-04T08:06:35.774Z,31.00
2023-05-04T08:09:03.930Z,24.17
2023-05-04T08:11:34.402Z,18.13
2023-05-04T08:14:03.078Z,21.43
2023-05-04T08:16:32.803Z,23.73
2023-05-04T08:19:01.709Z,22.63
2023-05-04T08:21:29.968Z,20.00
2023-05-04T08:23:59.116Z,20.43
2023-05-04T08:26:27.691Z,13.37
2023-05-04T08:29:07.642Z,20.73
2023-05-04T08:31:36.106Z,18.27
2023-05-04T08:34:05.254Z,14.17
2023-05-04T08:36:33.985Z,18.97
2023-05-04T08:39:02.208Z,15.95
2023-05-04T08:41:31.228Z,14.60
2023-05-04T08:43:59.588Z,11.77
2023-05-04T08:46:31.070Z,16.23
2023-05-04T08:48:59.280Z,10.43
2023-05-04T08:51:27.685Z,15.55
2023-05-04T08:53:56.252Z,9.23
2023-05-04T08:56:24.664Z,9.32
2023-05-04T08:58:53.238Z,6.57
2023-05-04T09:01:22.722Z,4.15
2023-05-04T09:03:52.740Z,2.17
2023-05-04T09:06:21.248Z,4.13
2023-05-04T09:08:49.363Z,7.70
2023-05-04T09:11:17.542Z,10.43
2023-05-04T09:13:45.706Z,7.78
2023-05-04T09:16:15.643Z,6.90
2023-05-04T09:18:44.968Z,9.30
2023-05-04T09:21:13.143Z,3.83
2023-05-04T09:23:49.716Z,5.00
2023-05-04T09:26:28.660Z,5.45
2023-05-04T09:28:57.880Z,7.10
2023-05-04T09:31:26.969Z,7.30
2023-05-04T09:34:01.153Z,6.88
2023-05-04T09:36:29.758Z,8.60
2023-05-04T09:38:57.966Z,12.07
2023-05-04T09:41:34.253Z,17.20
2023-05-04T09:44:03.800Z,10.07
2023-05-04T09:46:32.259Z,11.05
2023-05-04T09:49:01.177Z,9.32
2023-05-04T09:51:29.353Z,5.72
2023-05-04T09:53:59.065Z,6.25
2023-05-04T09:56:30.285Z,8.02
2023-05-04T09:59:02.340Z,5.68
2023-05-04T10:01:35.291Z,12.02
2023-05-04T10:04:04.903Z,11.77
2023-05-04T10:06:38.276Z,9.70
2023-05-04T10:09:10.299Z,9.65
2023-05-04T10:11:38.440Z,5.53
2023-05-04T10:14:07.683Z,5.90
2023-05-04T10:16:52.584Z,6.63
2023-05-04T10:19:30.092Z,8.17
2023-05-04T10:22:25.884Z,7.18
2023-05-04T10:25:22.911Z,11.63
2023-05-04T10:28:17.084Z,8.95
2023-05-04T10:30:46.085Z,10.63
2023-05-04T10:33:14.450Z,5.70
2023-05-04T10:35:56.393Z,12.18
2023-05-04T10:38:45.603Z,7.03
2023-05-04T10:41:22.400Z,7.97
2023-05-04T10:43:53.746Z,11.75
2023-05-04T10:46:23.194Z,10.68
2023-05-04T10:48:52.254Z,4.97
2023-05-04T10:51:21.604Z,6.60
2023-05-04T10:53:50.048Z,12.30
2023-05-04T10:56:25.765Z,8.98
2023-05-04T10:58:54.842Z,7.22
2023-05-04T11:01:23.576Z,4.38
2023-05-04T11:03:52.859Z,8.35
2023-05-04T11:06:25.297Z,5.55
2023-05-04T11:09:02.977Z,5.82
2023-05-04T11:11:37.013Z,4.07
2023-05-04T11:14:05.188Z,3.72
2023-05-04T11:16:33.712Z,5.05
2023-05-04T11:19:09.959Z,3.40
2023-05-04T11:21:38.462Z,4.78
2023-05-04T11:24:06.913Z,5.10
2023-05-04T11:26:48.286Z,5.65
2023-05-04T11:29:17.536Z,3.40
2023-05-04T11:31:55.222Z,5.85
2023-05-04T11:34:24.009Z,4.10
2023-05-04T11:36:52.254Z,3.80
2023-05-04T11:39:23.722Z,9.23
2023-05-04T11:41:53.394Z,3.17
2023-05-04T11:44:22.931Z,4.28
2023-05-04T11:46:52.159Z,3.13
2023-05-04T11:49:21.094Z,6.47
2023-05-04T11:51:49.780Z,3.42
2023-05-04T11:54:22.596Z,4.88
2023-05-04T11:56:50.800Z,8.50
2023-05-04T11:59:19.145Z,4.88
2023-05-04T12:01:48.869Z,3.60
2023-05-04T12:04:17.429Z,8.45
2023-05-04T12:06:46.912Z,5.25
2023-05-04T12:09:15.295Z,7.25
2023-05-04T12:11:54.941Z,5.03
2023-05-04T12:14:24.801Z,8.75
2023-05-04T12:16:58.069Z,3.85
2023-05-04T12:19:26.364Z,11.60
2023-05-04T12:21:55.425Z,8.10
2023-05-04T12:24:24.482Z,14.63
2023-05-04T12:26:52.716Z,8.98
2023-05-04T12:29:21.268Z,11.07
2023-05-04T12:31:49.635Z,8.88
2023-05-04T12:34:18.197Z,7.43
2023-05-04T12:36:46.742Z,8.10
2023-05-04T12:39:14.807Z,7.50
2023-05-04T12:41:42.904Z,6.30
2023-05-04T12:44:12.125Z,7.78
2023-05-04T12:46:40.459Z,5.10
2023-05-04T12:49:08.520Z,10.10
2023-05-04T12:51:36.706Z,9.13
2023-05-04T12:54:04.814Z,6.80
2023-05-04T12:56:34.139Z,10.90
2023-05-04T12:59:02.597Z,4.28
2023-05-04T13:01:31.011Z,6.70
2023-05-04T13:03:59.272Z,13.27
2023-05-04T13:06:27.830Z,6.03
2023-05-04T13:08:55.865Z,5.20
2023-05-04T13:11:25.466Z,6.80
2023-05-04T13:13:53.792Z,6.68
2023-05-04T13:16:22.107Z,3.53
2023-05-04T13:18:50.984Z,11.45
2023-05-04T13:21:23.287Z,4.68
2023-05-04T13:23:53.655Z,5.20
2023-05-04T13:26:21.742Z,6.25
2023-05-04T13:28:51.751Z,5.90
2023-05-04T13:31:19.902Z,3.65
2023-05-04T13:33:53.464Z,6.82
2023-05-04T13:36:30.720Z,10.00
2023-05-04T13:38:59.296Z,11.20
2023-05-04T13:41:27.972Z,9.57
2023-05-04T13:43:56.627Z,13.02
2023-05-04T13:46:25.251Z,10.40
2023-05-04T13:48:57.196Z,12.23
2023-05-04T13:51:26.123Z,11.88
2023-05-04T13:53:55.008Z,12.88
2023-05-04T13:56:23.995Z,10.50
2023-05-04T13:58:53.223Z,9.73
2023-05-04T14:01:21.312Z,11.30
2023-05-04T14:03:49.552Z,8.05
2023-05-04T14:06:17.789Z,9.52
2023-05-04T14:08:46.149Z,10.20
2023-05-04T14:11:14.422Z,8.32
2023-05-04T14:13:42.761Z,15.00
2023-05-04T14:16:11.331Z,7.63
2023-05-04T14:18:39.983Z,13.20
2023-05-04T14:21:08.063Z,10.70
2023-05-04T14:23:37.902Z,7.38
2023-05-04T14:26:06.338Z,16.75
2023-05-04T14:28:34.333Z,13.40
2023-05-04T14:31:09.024Z,9.60
2023-05-04T14:33:38.319Z,10.27
2023-05-04T14:36:07.093Z,16.37
2023-05-04T14:38:36.340Z,11.47
2023-05-04T14:41:05.681Z,12.43
2023-05-04T14:43:34.521Z,12.10
2023-05-04T14:46:02.768Z,9.20
2023-05-04T14:48:31.159Z,12.20
2023-05-04T14:50:59.336Z,18.85
2023-05-04T14:53:29.629Z,13.27
2023-05-04T14:55:58.102Z,9.40
2023-05-04T14:58:26.500Z,12.65
2023-05-04T15:00:59.822Z,12.25
2023-05-04T15:03:28.902Z,10.20
2023-05-04T15:05:58.189Z,8.60
2023-05-04T15:08:26.380Z,7.23
2023-05-04T15:10:58.811Z,11.87
2023-05-04T15:13:27.297Z,12.10
2023-05-04T15:15:55.284Z,7.00
2023-05-04T15:18:24.860Z,5.30
2023-05-04T15:20:54.322Z,5.43
2023-05-04T15:23:22.788Z,8.63
2023-05-04T15:25:51.150Z,5.47
2023-05-04T15:28:23.024Z,3.97
2023-05-04T15:30:51.012Z,3.70
2023-05-04T15:33:19.093Z,5.83
2023-05-04T15:35:49.563Z,15.07
2023-05-04T15:38:22.047Z,27.90
2023-05-04T15:40:53.847Z,16.47
2023-05-04T15:43:22.342Z,23.97
2023-05-04T15:45:53.166Z,11.63
2023-05-04T15:48:21.484Z,9.57
2023-05-04T15:50:55.243Z,14.03
2023-05-04T15:53:29.230Z,17.23
2023-05-04T15:55:57.956Z,15.20
2023-05-04T15:58:26.910Z,13.30
2023-05-04T16:00:55.799Z,18.87
2023-05-04T16:03:24.436Z,25.40
2023-05-04T16:05:52.612Z,18.77
2023-05-04T16:08:20.746Z,11.37
2023-05-04T16:10:49.812Z,19.97
2023-05-04T16:13:18.115Z,4.90
2023-05-04T16:15:50.541Z,10.03
2023-05-04T16:18:20.492Z,7.73
2023-05-04T16:20:49.120Z,6.73
2023-05-04T16:23:18.143Z,9.77
2023-05-04T16:25:46.697Z,8.47
2023-05-04T16:28:17.064Z,8.83
2023-05-04T16:30:49.807Z,7.93
2023-05-04T16:33:20.082Z,31.37
2023-05-04T16:35:48.387Z,19.07
2023-05-04T16:38:17.210Z,4.97
2023-05-04T16:40:45.643Z,10.37
2023-05-04T16:43:15.942Z,8.50
2023-05-04T16:45:46.104Z,10.03
2023-05-04T16:48:14.298Z,7.80
2023-05-04T16:50:42.450Z,11.83
2023-05-04T16:53:11.506Z,10.53
2023-05-04T16:55:41.152Z,10.10
2023-05-04T16:58:09.314Z,5.73
2023-05-04T17:00:37.398Z,10.63
2023-05-04T17:03:05.530Z,9.10
2023-05-04T17:05:35.370Z,21.53
2023-05-04T17:08:03.870Z,16.23
2023-05-04T17:10:32.057Z,10.50
2023-05-04T17:13:02.275Z,11.60
2023-05-04T17:15:31.344Z,10.13
2023-05-04T17:18:01.232Z,4.90
2023-05-04T17:20:32.354Z,11.23
2023-05-04T17:23:00.929Z,12.30
2023-05-04T17:25:34.399Z,9.47
2023-05-04T17:28:02.543Z,11.07
2023-05-04T17:30:31.064Z,17.10
2023-05-04T17:32:58.969Z,66.53
2023-05-04T17:35:29.863Z,44.57
2023-05-04T17:37:58.977Z,19.07
2023-05-04T17:40:30.266Z,14.83
2023-05-04T17:42:58.198Z,10.10
2023-05-04T17:45:26.571Z,15.03
2023-05-04T17:47:54.590Z,12.43
2023-05-04T17:50:25.899Z,17.70
2023-05-04T17:52:58.185Z,17.77
2023-05-04T17:55:27.481Z,18.10
2023-05-04T17:57:56.356Z,25.03
2023-05-04T18:00:25.908Z,15.73
2023-05-04T18:02:54.526Z,18.73
2023-05-04T18:05:23.820Z,17.30
2023-05-04T18:07:52.346Z,19.73
2023-05-04T18:10:21.177Z,17.20
2023-05-04T18:12:50.411Z,23.93
2023-05-04T18:15:18.821Z,16.47
2023-05-04T18:17:49.645Z,22.77
2023-05-04T18:20:17.909Z,20.40
2023-05-04T18:22:47.296Z,26.00
2023-05-04T18:25:19.399Z,13.60
2023-05-04T18:27:49.466Z,13.67
2023-05-04T18:30:22.412Z,16.90
2023-05-04T18:32:52.488Z,19.10
2023-05-04T18:35:22.112Z,17.93
2023-05-04T18:37:50.397Z,14.73
2023-05-04T18:40:18.853Z,17.50
2023-05-04T18:42:46.869Z,12.57
2023-05-04T18:45:14.845Z,10.87
2023-05-04T18:47:43.352Z,14.33
2023-05-04T18:50:14.064Z,15.53
2023-05-04T18:52:45.670Z,10.63
2023-05-04T18:55:27.147Z,11.27
2023-05-04T18:57:57.000Z,9.80
2023-05-04T19:00:31.178Z,12.17
2023-05-04T19:03:05.355Z,11.33
2023-05-04T19:05:44.760Z,23.70
2023-05-04T19:08:13.217Z,9.87
2023-05-04T19:10:43.473Z,9.83
2023-05-04T19:13:11.868Z,11.33
2023-05-04T19:15:54.347Z,16.57
2023-05-04T19:18:24.824Z,16.50
2023-05-04T19:20:58.613Z,12.80
2023-05-04T19:23:27.450Z,10.23
2023-05-04T19:26:04.683Z,14.43
2023-05-04T19:28:32.857Z,14.23
2023-05-04T19:31:03.903Z,14.63
2023-05-04T19:33:44.456Z,12.57
2023-05-04T19:36:36.981Z,13.83
2023-05-04T19:39:05.355Z,15.40
2023-05-04T19:41:33.515Z,23.17
2023-05-04T19:44:18.446Z,35.20
2023-05-04T19:46:47.920Z,36.30
2023-05-04T19:49:16.299Z,45.33
2023-05-04T19:51:45.172Z,42.23
2023-05-04T19:56:57.362Z,43.00
2023-05-04T19:59:25.829Z,41.67
2023-05-04T20:01:53.984Z,33.97
2023-05-04T20:04:22.574Z,28.80
2023-05-04T20:06:50.864Z,23.17
2023-05-04T20:09:19.891Z,22.27
2023-05-04T20:11:48.339Z,23.73
2023-05-04T20:14:16.743Z,19.60
2023-05-04T20:16:45.280Z,22.97
2023-05-04T20:19:13.483Z,21.23
2023-05-04T20:21:44.911Z,17.83
2023-05-04T20:24:13.364Z,14.20
2023-05-04T20:26:44.229Z,17.00
2023-05-04T20:29:12.519Z,15.67
2023-05-04T20:31:41.551Z,15.57
2023-05-04T20:34:09.989Z,18.83
2023-05-04T20:36:38.497Z,19.93
2023-05-04T20:39:07.510Z,13.37
2023-05-04T20:41:39.177Z,11.87
2023-05-04T20:44:07.180Z,8.90
2023-05-04T20:46:35.387Z,13.23
2023-05-04T20:49:03.843Z,12.50
2023-05-04T20:51:33.095Z,22.90
2023-05-04T20:54:01.483Z,18.93
2023-05-04T20:56:30.010Z,18.73
2023-05-04T20:58:58.403Z,29.23
2023-05-04T21:01:26.442Z,18.13
2023-05-04T21:03:55.209Z,12.50
2023-05-04T21:06:24.681Z,16.33
2023-05-04T21:08:52.632Z,26.90
2023-05-04T21:11:21.513Z,19.87
2023-05-04T21:13:49.750Z,26.97
2023-05-04T21:16:18.513Z,11.50
2023-05-04T21:18:47.045Z,20.33
2023-05-04T21:21:18.719Z,10.00
2023-05-04T21:23:47.032Z,15.27
2023-05-04T21:26:15.253Z,10.63
2023-05-04T21:28:43.810Z,8.37
2023-05-04T21:31:11.812Z,9.40
2023-05-04T21:33:40.300Z,6.47
2023-05-04T21:36:15.304Z,10.73
2023-05-04T21:38:43.289Z,7.83
2023-05-04T21:41:15.250Z,9.53
2023-05-04T21:43:43.560Z,21.83
2023-05-04T21:46:13.116Z,15.90
2023-05-04T21:48:41.482Z,12.57
2023-05-04T21:51:09.723Z,19.10
2023-05-04T21:53:37.869Z,26.30
2023-05-04T21:56:07.953Z,29.83
2023-05-04T21:58:45.697Z,14.80
2023-05-04T22:01:20.442Z,23.27
2023-05-04T22:03:50.143Z,21.73
2023-05-04T22:06:19.256Z,15.70
2023-05-04T22:08:47.748Z,14.73
2023-05-04T22:11:16.085Z,13.53
2023-05-04T22:13:44.696Z,31.73
2023-05-04T22:16:13.594Z,11.77
2023-05-04T22:18:41.770Z,20.33
2023-05-04T22:21:09.922Z,16.13
2023-05-04T22:23:41.185Z,15.73
2023-05-04T22:26:11.782Z,17.10
2023-05-04T22:28:39.846Z,15.27
2023-05-04T22:31:08.508Z,15.50
2023-05-04T22:33:36.778Z,13.03
2023-05-04T22:36:05.206Z,16.33
2023-05-04T22:38:36.686Z,12.47
2023-05-04T22:41:04.871Z,10.30
2023-05-04T22:43:36.409Z,9.13
2023-05-04T22:46:04.872Z,12.37
2023-05-04T22:48:34.635Z,12.50
2023-05-04T22:51:02.861Z,14.17
2023-05-04T22:53:38.168Z,13.27
2023-05-04T22:56:06.977Z,11.57
2023-05-04T22:58:35.519Z,12.77
2023-05-04T23:01:08.991Z,20.03
2023-05-04T23:03:37.491Z,21.97
2023-05-04T23:06:06.107Z,29.20
2023-05-04T23:08:34.506Z,28.70
2023-05-04T23:11:02.601Z,24.63
2023-05-04T23:13:31.227Z,34.27
2023-05-04T23:16:01.419Z,30.27
2023-05-04T23:18:30.103Z,29.70
2023-05-04T23:20:58.254Z,36.40
2023-05-04T23:23:26.605Z,32.87
2023-05-04T23:25:54.800Z,30.73
2023-05-04T23:28:22.825Z,33.37
2023-05-04T23:30:50.838Z,30.10
2023-05-04T23:33:19.181Z,32.37
2023-05-04T23:35:47.685Z,36.43
2023-05-04T23:38:16.613Z,45.17
2023-05-04T23:40:45.145Z,37.33
2023-05-04T23:43:13.257Z,54.67
2023-05-04T23:45:41.369Z,62.33
2023-05-04T23:48:09.577Z,81.80
2023-05-04T23:50:40.450Z,86.17
2023-05-04T23:53:10.897Z,84.73
2023-05-04T23:55:38.930Z,82.70
2023-05-04T23:58:07.042Z,86.90
